Time;durP1;ratioP1;P1;durP2;ratioP2;P2;SDS_P1;SDS_P2;PMS_P1;PMS_P2;Temp;Humidity;BMP_temperature;BMP_pressure;BME280_temperature;BME280_humidity;BME280_pressure;Samples;Min_cycle;Max_cycle;Signal;HPM_P1;HPM_P2
2021/04/02 00:01:00;;;;;;;12.52;4.53;;;;;;;;;;5013475;28;20522;-63
2021/04/02 00:03:45;;;;;;;13.13;4.00;;;;;;;;;;5014825;28;20048;-62
2021/04/02 00:06:30;;;;;;;13.25;5.70;;;;;;;;;;5013504;28;20049;-64
2021/04/02 00:09:16;;;;;;;11.07;4.22;;;;;;;;;;5014475;28;20101;-64
2021/04/02 00:12:01;;;;;;;10.82;4.10;;;;;;;;;;5014761;28;20121;-63
2021/04/02 00:14:46;;;;;;;13.80;4.68;;;;;;;;;;4997451;28;20054;-64
2021/04/02 00:17:32;;;;;;;11.35;4.60;;;;;;;;;;5014431;28;20049;-63
2021/04/02 00:20:18;;;;;;;13.02;4.00;;;;;;;;;;5014256;28;20434;-64
2021/04/02 00:23:07;;;;;;;10.45;4.13;;;;;;;;;;5014409;28;20521;-63
2021/04/02 00:25:52;;;;;;;10.77;3.95;;;;;;;;;;5013131;28;20112;-64
2021/04/02 00:28:37;;;;;;;12.43;3.95;;;;;;;;;;4999576;28;20054;-63
2021/04/02 00:31:23;;;;;;;10.15;4.28;;;;;;;;;;5013989;28;20050;-64
2021/04/02 00:34:08;;;;;;;9.57;4.32;;;;;;;;;;5013202;28;20121;-64
2021/04/02 00:36:54;;;;;;;12.00;4.07;;;;;;;;;;5014002;28;20052;-63
2021/04/02 00:39:39;;;;;;;10.80;5.35;;;;;;;;;;5013484;28;20050;-63
2021/04/02 00:42:25;;;;;;;14.77;3.80;;;;;;;;;;5014192;28;20046;-63
2021/04/02 00:45:10;;;;;;;12.15;5.05;;;;;;;;;;5012729;28;20117;-63
2021/04/02 00:47:56;;;;;;;11.60;4.07;;;;;;;;;;5012977;28;20042;-62
2021/04/02 00:50:49;;;;;;;10.50;4.13;;;;;;;;;;5013442;28;20046;-63
2021/04/02 00:53:35;;;;;;;8.15;3.72;;;;;;;;;;5013739;28;20045;-63
2021/04/02 00:56:21;;;;;;;10.02;3.90;;;;;;;;;;5012677;28;20052;-64
2021/04/02 00:59:06;;;;;;;11.02;4.03;;;;;;;;;;5006707;28;20048;-63
2021/04/02 01:01:51;;;;;;;11.38;3.80;;;;;;;;;;5011575;28;20184;-63
2021/04/02 01:04:37;;;;;;;10.57;3.58;;;;;;;;;;4998802;28;20054;-64
2021/04/02 01:07:22;;;;;;;9.65;4.25;;;;;;;;;;4992964;28;20053;-63
2021/04/02 01:10:09;;;;;;;12.10;4.28;;;;;;;;;;4978882;28;20066;-63
2021/04/02 01:13:15;;;;;;;11.18;4.28;;;;;;;;;;5000878;28;20038;-63
2021/04/02 01:16:06;;;;;;;11.52;3.55;;;;;;;;;;5013454;28;20046;-63
2021/04/02 01:18:52;;;;;;;10.40;4.10;;;;;;;;;;5013193;28;20414;-64
2021/04/02 01:21:42;;;;;;;12.45;4.28;;;;;;;;;;4998334;28;20054;-64
2021/04/02 01:24:46;;;;;;;10.65;5.00;;;;;;;;;;4997571;28;20060;-65
2021/04/02 01:27:41;;;;;;;12.40;3.67;;;;;;;;;;4998327;28;20129;-64
2021/04/02 01:30:27;;;;;;;11.05;4.15;;;;;;;;;;5065345;22;20076;-62
2021/04/02 01:33:12;;;;;;;12.35;3.90;;;;;;;;;;5016470;28;20115;-62
2021/04/02 01:35:58;;;;;;;11.80;4.28;;;;;;;;;;5032805;28;20497;-62
2021/04/02 01:38:45;;;;;;;7.97;4.05;;;;;;;;;;5032880;28;20053;-62
2021/04/02 01:41:30;;;;;;;13.90;4.22;;;;;;;;;;4999905;28;20188;-62
2021/04/02 01:44:16;;;;;;;11.38;4.95;;;;;;;;;;4983909;28;20057;-61
2021/04/02 01:47:01;;;;;;;8.35;4.05;;;;;;;;;;5013141;28;20049;-62
2021/04/02 01:49:47;;;;;;;14.20;4.85;;;;;;;;;;4985187;28;20144;-63
2021/04/02 01:52:32;;;;;;;9.88;4.78;;;;;;;;;;4998553;28;20046;-61
2021/04/02 01:55:17;;;;;;;15.70;5.05;;;;;;;;;;4996920;28;20476;-62
2021/04/02 01:58:06;;;;;;;12.43;4.90;;;;;;;;;;4998288;28;20529;-62
2021/04/02 02:00:55;;;;;;;13.90;5.20;;;;;;;;;;4984241;28;20145;-61
2021/04/02 02:03:50;;;;;;;14.65;6.28;;;;;;;;;;4997855;28;20141;-62
2021/04/02 02:06:36;;;;;;;9.70;6.40;;;;;;;;;;4978069;28;20046;-62
2021/04/02 02:09:38;;;;;;;15.45;6.65;;;;;;;;;;4977669;28;20062;-61
2021/04/02 02:12:33;;;;;;;16.40;6.70;;;;;;;;;;4977858;28;20049;-62
2021/04/02 02:15:25;;;;;;;14.23;6.72;;;;;;;;;;4975164;28;20445;-63
2021/04/02 02:18:12;;;;;;;15.35;7.10;;;;;;;;;;5012815;28;20045;-62
2021/04/02 02:20:58;;;;;;;17.33;5.95;;;;;;;;;;5011848;28;20054;-62
2021/04/02 02:23:45;;;;;;;12.82;6.05;;;;;;;;;;4996144;28;20053;-62
2021/04/02 02:26:32;;;;;;;13.15;4.57;;;;;;;;;;5012319;28;20487;-62
2021/04/02 02:29:18;;;;;;;13.15;5.22;;;;;;;;;;4997240;28;20049;-62
2021/04/02 02:32:05;;;;;;;9.30;4.90;;;;;;;;;;5012311;28;20042;-62
2021/04/02 02:34:53;;;;;;;13.05;5.07;;;;;;;;;;4996342;28;20045;-62
2021/04/02 02:37:42;;;;;;;8.98;4.28;;;;;;;;;;5012032;28;20490;-63
2021/04/02 02:40:29;;;;;;;11.18;4.85;;;;;;;;;;4998033;28;20042;-63
2021/04/02 02:43:15;;;;;;;14.63;4.50;;;;;;;;;;4996115;28;20045;-62
2021/04/02 02:46:01;;;;;;;8.05;3.80;;;;;;;;;;5010832;28;20038;-62
2021/04/02 02:48:47;;;;;;;9.13;3.47;;;;;;;;;;5011834;28;20046;-62
2021/04/02 02:51:33;;;;;;;9.27;3.42;;;;;;;;;;5016717;28;20557;-63
2021/04/02 02:54:20;;;;;;;8.90;3.58;;;;;;;;;;4999902;28;20431;-63
2021/04/02 02:57:09;;;;;;;6.30;3.08;;;;;;;;;;5000756;28;20077;-61
2021/04/02 02:59:54;;;;;;;7.93;2.95;;;;;;;;;;4999605;28;20049;-62
2021/04/02 03:02:41;;;;;;;7.13;3.08;;;;;;;;;;4997278;28;20121;-62
2021/04/02 03:05:27;;;;;;;6.45;2.75;;;;;;;;;;5010977;28;20057;-62
2021/04/02 03:08:13;;;;;;;8.10;2.92;;;;;;;;;;4999968;28;20054;-62
2021/04/02 03:10:59;;;;;;;10.35;3.03;;;;;;;;;;4996945;28;20050;-62
2021/04/02 03:13:45;;;;;;;8.20;3.22;;;;;;;;;;5000078;28;20049;-63
2021/04/02 03:16:33;;;;;;;11.95;3.03;;;;;;;;;;4996442;28;20046;-62
2021/04/02 03:19:22;;;;;;;10.93;3.47;;;;;;;;;;4997150;28;20490;-62
2021/04/02 03:22:11;;;;;;;7.80;2.97;;;;;;;;;;5013341;28;20050;-62
2021/04/02 03:25:18;;;;;;;10.93;2.70;;;;;;;;;;4995419;28;20046;-62
2021/04/02 03:28:09;;;;;;;10.48;3.33;;;;;;;;;;5011682;28;20505;-62
2021/04/02 03:31:00;;;;;;;9.55;3.90;;;;;;;;;;4997296;28;20504;-62
2021/04/02 03:33:53;;;;;;;17.98;4.25;;;;;;;;;;4996702;28;20042;-62
2021/04/02 03:36:43;;;;;;;11.00;4.00;;;;;;;;;;4998765;28;20409;-62
2021/04/02 03:39:34;;;;;;;12.68;3.40;;;;;;;;;;5001277;28;20057;-62
2021/04/02 03:42:26;;;;;;;8.93;3.70;;;;;;;;;;5000263;28;20517;-62
2021/04/02 03:45:12;;;;;;;12.43;3.75;;;;;;;;;;4980318;28;20516;-62
2021/04/02 03:47:58;;;;;;;11.50;4.38;;;;;;;;;;5003366;28;20117;-63
2021/04/02 03:50:45;;;;;;;10.98;3.60;;;;;;;;;;5000147;28;20109;-63
2021/04/02 03:53:43;;;;;;;10.35;3.58;;;;;;;;;;5001492;28;20046;-62
2021/04/02 03:56:30;;;;;;;15.07;4.00;;;;;;;;;;4998502;28;20090;-62
2021/04/02 03:59:16;;;;;;;10.73;3.60;;;;;;;;;;4986707;28;20046;-61
2021/04/02 04:02:09;;;;;;;9.30;3.45;;;;;;;;;;4987223;28;20053;-62
2021/04/02 04:04:55;;;;;;;8.98;3.10;;;;;;;;;;5000566;28;20461;-63
2021/04/02 04:07:43;;;;;;;12.27;4.32;;;;;;;;;;4999512;28;20042;-63
2021/04/02 04:10:29;;;;;;;12.82;4.00;;;;;;;;;;5014435;28;20128;-62
2021/04/02 04:13:15;;;;;;;9.50;4.00;;;;;;;;;;5000324;28;20054;-63
2021/04/02 04:16:03;;;;;;;13.40;4.63;;;;;;;;;;5002427;28;20135;-61
2021/04/02 04:18:48;;;;;;;12.30;3.88;;;;;;;;;;4999887;28;20075;-64
2021/04/02 04:21:38;;;;;;;15.75;3.95;;;;;;;;;;5014189;28;20085;-65
2021/04/02 04:24:27;;;;;;;12.20;3.47;;;;;;;;;;4986377;28;20125;-64
2021/04/02 04:27:13;;;;;;;14.15;3.80;;;;;;;;;;5013643;28;20124;-65
2021/04/02 04:29:59;;;;;;;13.43;3.72;;;;;;;;;;5013877;28;20073;-64
2021/04/02 04:32:44;;;;;;;9.52;4.05;;;;;;;;;;4999510;28;20042;-64
2021/04/02 04:35:29;;;;;;;24.40;5.32;;;;;;;;;;5014320;28;20073;-64
2021/04/02 04:38:15;;;;;;;12.05;4.05;;;;;;;;;;5013309;28;20069;-64
2021/04/02 04:41:00;;;;;;;9.07;2.70;;;;;;;;;;5001076;28;20486;-65
2021/04/02 04:43:46;;;;;;;14.77;5.38;;;;;;;;;;5003817;28;20038;-65
2021/04/02 04:46:31;;;;;;;11.18;3.20;;;;;;;;;;5014397;28;20050;-66
2021/04/02 04:49:16;;;;;;;13.68;3.28;;;;;;;;;;5003445;28;20042;-65
2021/04/02 04:52:02;;;;;;;12.63;3.10;;;;;;;;;;5004957;28;20453;-65
2021/04/02 04:54:47;;;;;;;11.93;3.03;;;;;;;;;;5008105;28;20042;-65
2021/04/02 04:57:33;;;;;;;12.20;2.90;;;;;;;;;;5012926;28;20125;-64
2021/04/02 05:00:19;;;;;;;8.27;2.38;;;;;;;;;;5013061;28;20506;-65
2021/04/02 05:03:04;;;;;;;12.73;2.92;;;;;;;;;;5015138;28;20041;-65
2021/04/02 05:05:53;;;;;;;12.05;3.13;;;;;;;;;;5000748;28;20109;-65
2021/04/02 05:08:42;;;;;;;7.82;2.28;;;;;;;;;;5018559;28;20046;-64
2021/04/02 05:11:27;;;;;;;8.45;3.22;;;;;;;;;;5014635;28;20056;-65
2021/04/02 05:14:13;;;;;;;8.48;2.55;;;;;;;;;;5015841;28;20045;-65
2021/04/02 05:16:58;;;;;;;8.55;3.03;;;;;;;;;;5004040;28;20089;-65
2021/04/02 05:19:44;;;;;;;10.27;2.15;;;;;;;;;;4996777;28;20038;-65
2021/04/02 05:22:29;;;;;;;5.63;2.03;;;;;;;;;;5003346;28;20045;-65
2021/04/02 05:25:14;;;;;;;6.75;1.80;;;;;;;;;;5014786;28;20053;-64
2021/04/02 05:28:00;;;;;;;5.00;1.65;;;;;;;;;;5015184;28;20701;-66
2021/04/02 05:30:45;;;;;;;7.90;2.10;;;;;;;;;;5009687;28;20042;-65
2021/04/02 05:33:31;;;;;;;8.75;2.15;;;;;;;;;;5008729;28;20049;-65
2021/04/02 05:36:16;;;;;;;7.47;1.80;;;;;;;;;;5009513;28;20069;-65
2021/04/02 05:39:01;;;;;;;5.22;1.60;;;;;;;;;;5012772;28;20528;-65
2021/04/02 05:41:51;;;;;;;5.90;1.55;;;;;;;;;;5012700;28;20418;-64
2021/04/02 05:44:37;;;;;;;5.90;1.20;;;;;;;;;;5003532;28;20049;-64
2021/04/02 05:47:22;;;;;;;6.57;1.42;;;;;;;;;;5012526;28;20053;-64
2021/04/02 05:50:08;;;;;;;9.45;1.50;;;;;;;;;;5011646;28;20140;-64
2021/04/02 05:52:54;;;;;;;6.30;1.27;;;;;;;;;;4998745;28;20042;-65
2021/04/02 05:55:39;;;;;;;7.68;1.52;;;;;;;;;;5009885;28;20414;-64
2021/04/02 05:58:25;;;;;;;10.52;1.73;;;;;;;;;;5002115;28;20046;-64
2021/04/02 06:01:10;;;;;;;9.73;1.60;;;;;;;;;;4994957;28;20433;-65
2021/04/02 06:03:55;;;;;;;11.45;2.35;;;;;;;;;;5012500;28;20410;-63
2021/04/02 06:06:40;;;;;;;8.45;1.40;;;;;;;;;;5011197;28;20060;-65
2021/04/02 06:09:25;;;;;;;11.57;1.83;;;;;;;;;;5012400;28;20490;-64
2021/04/02 06:12:11;;;;;;;5.60;2.08;;;;;;;;;;5011473;28;20044;-64
2021/04/02 06:14:56;;;;;;;13.75;1.83;;;;;;;;;;4997766;28;20042;-64
2021/04/02 06:17:58;;;;;;;6.45;1.30;;;;;;;;;;4991130;28;20423;-64
2021/04/02 06:20:44;;;;;;;10.45;1.73;;;;;;;;;;5007195;28;20046;-65
2021/04/02 06:23:30;;;;;;;10.05;2.13;;;;;;;;;;5017139;28;20053;-65
2021/04/02 06:26:15;;;;;;;9.80;1.95;;;;;;;;;;4997669;28;20084;-65
2021/04/02 06:29:00;;;;;;;11.65;2.78;;;;;;;;;;5012258;28;20057;-65
2021/04/02 06:31:45;;;;;;;5.80;1.30;;;;;;;;;;5008866;28;20046;-65
2021/04/02 06:34:31;;;;;;;6.22;1.58;;;;;;;;;;4997578;28;20437;-66
2021/04/02 06:37:16;;;;;;;13.48;1.52;;;;;;;;;;5010423;28;20072;-64
2021/04/02 06:40:02;;;;;;;11.43;2.55;;;;;;;;;;5001161;28;20552;-63
2021/04/02 06:42:47;;;;;;;7.50;1.60;;;;;;;;;;5007307;28;20053;-65
2021/04/02 06:45:32;;;;;;;7.47;1.42;;;;;;;;;;5012263;28;20046;-64
2021/04/02 06:48:18;;;;;;;7.60;1.60;;;;;;;;;;5014743;28;20046;-65
2021/04/02 06:51:04;;;;;;;5.22;1.75;;;;;;;;;;5004714;28;20065;-65
2021/04/02 06:53:50;;;;;;;7.75;2.05;;;;;;;;;;5015360;28;20502;-64
2021/04/02 06:56:36;;;;;;;5.30;1.92;;;;;;;;;;5013561;28;20050;-65
2021/04/02 06:59:21;;;;;;;7.88;2.28;;;;;;;;;;5012795;28;20449;-64
2021/04/02 07:02:07;;;;;;;8.77;2.15;;;;;;;;;;5012305;28;20088;-64
2021/04/02 07:04:53;;;;;;;6.32;1.60;;;;;;;;;;5012683;28;20395;-64
2021/04/02 07:07:38;;;;;;;23.15;2.17;;;;;;;;;;4996940;28;20509;-64
2021/04/02 07:10:23;;;;;;;6.13;1.80;;;;;;;;;;4998288;28;20053;-64
2021/04/02 07:13:09;;;;;;;15.48;4.40;;;;;;;;;;5015455;28;20042;-64
2021/04/02 07:15:54;;;;;;;8.85;1.73;;;;;;;;;;4994822;28;20453;-63
2021/04/02 07:18:39;;;;;;;13.73;1.75;;;;;;;;;;4981526;28;20050;-64
2021/04/02 07:21:25;;;;;;;5.65;2.03;;;;;;;;;;4981251;28;20042;-64
2021/04/02 07:24:10;;;;;;;7.22;1.70;;;;;;;;;;4981381;28;20050;-63
2021/04/02 07:26:55;;;;;;;14.45;2.00;;;;;;;;;;5012660;28;20133;-64
2021/04/02 07:32:53;;;;;;;4.75;2.10;;;;;;;;;;4954644;28;20043;-62
2021/04/02 07:35:38;;;;;;;10.15;2.33;;;;;;;;;;4925659;28;20048;-62
2021/04/02 07:38:27;;;;;;;10.85;3.15;;;;;;;;;;4962589;28;20043;-63
2021/04/02 07:41:13;;;;;;;9.38;2.83;;;;;;;;;;4968560;28;20118;-63
2021/04/02 07:43:59;;;;;;;9.18;1.83;;;;;;;;;;4976124;28;20418;-63
2021/04/02 07:47:03;;;;;;;11.45;2.13;;;;;;;;;;4975365;28;20047;-61
2021/04/02 07:49:48;;;;;;;8.45;1.70;;;;;;;;;;4975656;28;20051;-63
2021/04/02 07:52:39;;;;;;;7.63;1.95;;;;;;;;;;4975697;28;20047;-62
2021/04/02 07:55:24;;;;;;;8.05;1.40;;;;;;;;;;4975477;28;20043;-62
2021/04/02 07:58:09;;;;;;;6.53;1.55;;;;;;;;;;4974720;28;20711;-62
2021/04/02 08:00:56;;;;;;;8.20;2.70;;;;;;;;;;4975633;28;20072;-62
2021/04/02 08:03:42;;;;;;;9.18;1.70;;;;;;;;;;4957853;28;20059;-62
2021/04/02 08:06:32;;;;;;;14.18;3.03;;;;;;;;;;4961531;28;20046;-62
2021/04/02 08:09:17;;;;;;;11.48;1.83;;;;;;;;;;4956604;29;20051;-62
2021/04/02 08:12:03;;;;;;;14.23;2.17;;;;;;;;;;4956239;28;20495;-62
2021/04/02 08:14:49;;;;;;;9.63;2.70;;;;;;;;;;4971485;28;20499;-63
2021/04/02 08:17:35;;;;;;;8.73;1.60;;;;;;;;;;4974978;28;20059;-62
2021/04/02 08:20:22;;;;;;;13.15;3.05;;;;;;;;;;4975155;28;20042;-62
2021/04/02 08:23:07;;;;;;;10.63;2.10;;;;;;;;;;4975037;28;20418;-62
2021/04/02 08:25:56;;;;;;;8.48;2.13;;;;;;;;;;4975410;28;20495;-62
2021/04/02 08:28:41;;;;;;;9.00;1.95;;;;;;;;;;4974586;28;20050;-61
2021/04/02 08:31:27;;;;;;;11.23;1.70;;;;;;;;;;4956552;28;20056;-62
2021/04/02 08:34:14;;;;;;;9.68;1.90;;;;;;;;;;4956239;29;20106;-61
2021/04/02 08:37:00;;;;;;;8.13;1.52;;;;;;;;;;4955897;29;20500;-62
2021/04/02 08:39:46;;;;;;;11.90;1.85;;;;;;;;;;4954602;28;20503;-62
2021/04/02 08:42:31;;;;;;;10.20;1.75;;;;;;;;;;4956032;28;20055;-63
2021/04/02 08:45:18;;;;;;;8.00;1.70;;;;;;;;;;4950977;28;20043;-63
2021/04/02 08:48:04;;;;;;;5.47;1.63;;;;;;;;;;4936973;29;20048;-62
2021/04/02 08:50:49;;;;;;;8.35;1.73;;;;;;;;;;4955520;28;20134;-62
2021/04/02 08:53:41;;;;;;;8.70;1.85;;;;;;;;;;4955773;28;20051;-62
2021/04/02 08:56:28;;;;;;;8.13;1.40;;;;;;;;;;4955559;28;20419;-62
2021/04/02 08:59:13;;;;;;;9.32;1.92;;;;;;;;;;4954066;29;20384;-62
2021/04/02 09:01:58;;;;;;;8.98;1.95;;;;;;;;;;4953703;28;20047;-62
2021/04/02 09:04:44;;;;;;;9.50;2.45;;;;;;;;;;4954463;29;20043;-62
2021/04/02 09:07:29;;;;;;;7.72;2.25;;;;;;;;;;4954186;28;20047;-63
2021/04/02 09:10:17;;;;;;;8.50;1.90;;;;;;;;;;4947391;28;20051;-63
2021/04/02 09:13:03;;;;;;;5.07;1.75;;;;;;;;;;4942246;29;20039;-62
2021/04/02 09:15:48;;;;;;;8.50;1.90;;;;;;;;;;4949575;29;20199;-62
2021/04/02 09:18:34;;;;;;;8.27;1.77;;;;;;;;;;4954844;29;20043;-62
2021/04/02 09:21:19;;;;;;;8.15;2.10;;;;;;;;;;4953583;28;20055;-63
2021/04/02 09:24:05;;;;;;;7.80;1.70;;;;;;;;;;4954561;29;20051;-62
2021/04/02 09:26:51;;;;;;;7.68;2.83;;;;;;;;;;4951576;29;20535;-62
2021/04/02 09:29:36;;;;;;;11.32;2.95;;;;;;;;;;4946945;29;20095;-62
2021/04/02 09:32:23;;;;;;;8.30;2.17;;;;;;;;;;4954155;28;20055;-62
2021/04/02 09:35:08;;;;;;;10.15;1.83;;;;;;;;;;4940968;28;20515;-62
2021/04/02 09:37:54;;;;;;;13.95;3.35;;;;;;;;;;4953458;29;20431;-62
2021/04/02 09:40:39;;;;;;;8.30;2.60;;;;;;;;;;4965830;28;20567;-62
2021/04/02 09:43:24;;;;;;;5.25;1.63;;;;;;;;;;4953216;29;20047;-62
2021/04/02 09:46:12;;;;;;;10.38;2.25;;;;;;;;;;4954115;29;20047;-61
2021/04/02 09:49:09;;;;;;;9.02;1.50;;;;;;;;;;4954320;29;20043;-62
2021/04/02 09:51:55;;;;;;;6.07;1.20;;;;;;;;;;4948484;29;20040;-62
2021/04/02 09:54:41;;;;;;;7.38;1.80;;;;;;;;;;4954196;29;20051;-62
2021/04/02 09:57:26;;;;;;;11.55;1.80;;;;;;;;;;4954026;29;20471;-62
2021/04/02 10:00:12;;;;;;;9.00;2.67;;;;;;;;;;4953534;28;20055;-62
2021/04/02 10:02:58;;;;;;;7.95;1.67;;;;;;;;;;4948781;29;20055;-62
2021/04/02 10:05:43;;;;;;;14.90;3.10;;;;;;;;;;4938742;29;20492;-62
2021/04/02 10:08:29;;;;;;;8.05;1.95;;;;;;;;;;4953949;29;20511;-62
2021/04/02 10:11:14;;;;;;;8.35;1.92;;;;;;;;;;4952694;28;20043;-62
2021/04/02 10:14:00;;;;;;;10.15;1.40;;;;;;;;;;4953563;29;20381;-62
2021/04/02 10:16:46;;;;;;;9.73;1.95;;;;;;;;;;4953064;29;20415;-62
2021/04/02 10:19:32;;;;;;;8.00;1.55;;;;;;;;;;4951996;29;20055;-62
2021/04/02 10:22:17;;;;;;;11.38;1.75;;;;;;;;;;4952340;29;20039;-62
2021/04/02 10:25:03;;;;;;;9.88;1.70;;;;;;;;;;4953578;29;20504;-62
2021/04/02 10:27:48;;;;;;;6.93;1.80;;;;;;;;;;4939305;29;20044;-62
2021/04/02 10:30:33;;;;;;;5.78;2.22;;;;;;;;;;4959310;28;20046;-62
2021/04/02 10:33:19;;;;;;;6.30;1.75;;;;;;;;;;4971992;28;20150;-62
2021/04/02 10:36:05;;;;;;;10.75;1.90;;;;;;;;;;4972678;28;20034;-62
2021/04/02 10:38:50;;;;;;;11.18;2.50;;;;;;;;;;4971767;28;20122;-62
2021/04/02 10:41:36;;;;;;;10.40;1.73;;;;;;;;;;4972318;28;20067;-62
2021/04/02 10:44:21;;;;;;;7.88;1.70;;;;;;;;;;4972314;28;20055;-62
2021/04/02 10:47:06;;;;;;;6.80;1.38;;;;;;;;;;4972508;28;20059;-62
2021/04/02 10:49:51;;;;;;;6.50;1.27;;;;;;;;;;4956680;28;20043;-62
2021/04/02 10:52:37;;;;;;;24.42;3.22;;;;;;;;;;4969901;28;20419;-61
2021/04/02 10:55:22;;;;;;;9.68;1.70;;;;;;;;;;4972502;28;20050;-62
2021/04/02 10:58:07;;;;;;;4.65;1.02;;;;;;;;;;4972737;28;20043;-63
2021/04/02 11:00:53;;;;;;;7.80;2.00;;;;;;;;;;4971581;28;20047;-62
2021/04/02 11:03:38;;;;;;;5.07;1.50;;;;;;;;;;4961344;28;20174;-62
2021/04/02 11:06:24;;;;;;;13.32;3.42;;;;;;;;;;4960776;28;20043;-62
2021/04/02 11:09:09;;;;;;;4.05;1.73;;;;;;;;;;4969293;28;20050;-62
2021/04/02 11:11:55;;;;;;;4.85;1.80;;;;;;;;;;4963365;28;20062;-62
2021/04/02 11:14:40;;;;;;;11.93;1.80;;;;;;;;;;4972439;28;20054;-63
2021/04/02 11:17:26;;;;;;;6.65;1.58;;;;;;;;;;4971532;28;20043;-62
2021/04/02 11:20:11;;;;;;;4.95;1.33;;;;;;;;;;4963977;28;20055;-62
2021/04/02 11:22:57;;;;;;;6.25;1.10;;;;;;;;;;4964853;28;20621;-64
2021/04/02 11:25:42;;;;;;;6.65;1.70;;;;;;;;;;4956153;28;20110;-62
2021/04/02 11:28:27;;;;;;;8.25;1.95;;;;;;;;;;4972258;28;20635;-62
2021/04/02 11:31:13;;;;;;;8.25;1.77;;;;;;;;;;4971918;28;20510;-62
2021/04/02 11:33:59;;;;;;;7.20;1.30;;;;;;;;;;4971338;28;20038;-62
2021/04/02 11:36:44;;;;;;;10.20;2.13;;;;;;;;;;4972325;28;20503;-63
2021/04/02 11:39:29;;;;;;;8.38;1.40;;;;;;;;;;4972122;28;20073;-62
2021/04/02 11:42:15;;;;;;;5.78;1.67;;;;;;;;;;4972252;28;20040;-62
2021/04/02 11:45:00;;;;;;;14.38;2.88;;;;;;;;;;4970852;28;20065;-63
2021/04/02 11:47:45;;;;;;;10.27;1.83;;;;;;;;;;4972568;28;20046;-62
2021/04/02 11:50:31;;;;;;;6.60;1.42;;;;;;;;;;4972046;28;20054;-62
2021/04/02 11:53:16;;;;;;;9.00;1.27;;;;;;;;;;4971887;28;20047;-63
2021/04/02 11:56:02;;;;;;;5.20;1.77;;;;;;;;;;4972216;28;20475;-63
2021/04/02 11:58:47;;;;;;;10.60;1.50;;;;;;;;;;4975752;28;20047;-63
2021/04/02 12:01:32;;;;;;;6.35;1.40;;;;;;;;;;4975107;28;21496;-63
2021/04/02 12:04:19;;;;;;;8.07;1.80;;;;;;;;;;4974668;28;20059;-63
2021/04/02 12:07:04;;;;;;;3.28;1.40;;;;;;;;;;4975559;28;20054;-63
2021/04/02 12:09:49;;;;;;;6.28;1.15;;;;;;;;;;4960677;28;20126;-63
2021/04/02 12:12:35;;;;;;;13.45;2.20;;;;;;;;;;4975321;28;20054;-63
2021/04/02 12:15:20;;;;;;;7.43;1.50;;;;;;;;;;4973555;28;20062;-63
2021/04/02 12:18:06;;;;;;;4.97;1.33;;;;;;;;;;4975329;28;20043;-63
2021/04/02 12:20:51;;;;;;;14.27;2.35;;;;;;;;;;4974828;28;20051;-63
2021/04/02 12:23:37;;;;;;;6.75;2.13;;;;;;;;;;4974990;28;20581;-63
2021/04/02 12:26:23;;;;;;;9.35;1.80;;;;;;;;;;4974326;28;20050;-62
2021/04/02 12:29:08;;;;;;;7.35;1.58;;;;;;;;;;4974975;28;20075;-63
2021/04/02 12:31:53;;;;;;;10.00;1.70;;;;;;;;;;4954166;28;20057;-63
2021/04/02 12:34:39;;;;;;;8.55;1.60;;;;;;;;;;4955663;29;20098;-62
2021/04/02 12:37:24;;;;;;;8.50;1.58;;;;;;;;;;4955053;29;20055;-62
2021/04/02 12:40:13;;;;;;;10.30;2.70;;;;;;;;;;4955365;28;20035;-62
2021/04/02 12:42:58;;;;;;;11.27;1.65;;;;;;;;;;4955515;29;20047;-63
2021/04/02 12:45:44;;;;;;;7.60;1.50;;;;;;;;;;4939387;29;20155;-63
2021/04/02 12:48:29;;;;;;;7.20;2.03;;;;;;;;;;4955572;28;20503;-63
2021/04/02 12:51:15;;;;;;;8.80;2.60;;;;;;;;;;4954917;28;20508;-63
2021/04/02 12:54:01;;;;;;;8.75;1.83;;;;;;;;;;4955146;29;20046;-63
2021/04/02 12:56:46;;;;;;;11.57;1.83;;;;;;;;;;4954738;29;20047;-63
2021/04/02 12:59:31;;;;;;;8.30;1.73;;;;;;;;;;4954939;28;20443;-63
2021/04/02 13:02:17;;;;;;;5.40;1.52;;;;;;;;;;4942553;29;20512;-63
2021/04/02 13:05:02;;;;;;;7.13;1.55;;;;;;;;;;4953403;29;20058;-63
2021/04/02 13:07:48;;;;;;;7.63;2.40;;;;;;;;;;4949063;28;20130;-63
2021/04/02 13:10:33;;;;;;;6.80;1.42;;;;;;;;;;4953494;28;20051;-63
2021/04/02 13:13:18;;;;;;;13.45;1.70;;;;;;;;;;4951590;28;20059;-63
2021/04/02 13:16:04;;;;;;;9.05;1.73;;;;;;;;;;4957502;28;20476;-63
2021/04/02 13:18:49;;;;;;;7.40;1.60;;;;;;;;;;4952266;28;20503;-63
2021/04/02 13:21:35;;;;;;;7.22;1.45;;;;;;;;;;4945166;29;20039;-63
2021/04/02 13:24:20;;;;;;;8.18;1.67;;;;;;;;;;4952924;28;20500;-63
2021/04/02 13:27:06;;;;;;;7.68;1.90;;;;;;;;;;4951816;28;20054;-63
2021/04/02 13:29:51;;;;;;;3.15;0.95;;;;;;;;;;4938147;28;20118;-63
2021/04/02 13:32:40;;;;;;;7.28;1.23;;;;;;;;;;4970810;28;20046;-64
2021/04/02 13:35:26;;;;;;;4.18;0.73;;;;;;;;;;4971025;28;20059;-64
2021/04/02 13:38:11;;;;;;;4.45;1.13;;;;;;;;;;4967703;28;20055;-63
2021/04/02 13:40:57;;;;;;;5.03;0.98;;;;;;;;;;4967086;28;20054;-63
2021/04/02 13:43:42;;;;;;;5.93;1.00;;;;;;;;;;4964280;28;20043;-63
2021/04/02 13:46:27;;;;;;;8.63;1.48;;;;;;;;;;4969862;28;20050;-63
2021/04/02 13:49:13;;;;;;;3.80;1.15;;;;;;;;;;4971025;28;20047;-63
2021/04/02 13:51:58;;;;;;;6.30;1.35;;;;;;;;;;4970419;28;20042;-64
2021/04/02 13:54:43;;;;;;;4.30;0.98;;;;;;;;;;4970902;28;20078;-63
2021/04/02 13:57:28;;;;;;;4.07;1.20;;;;;;;;;;4969731;28;20051;-63
2021/04/02 14:00:15;;;;;;;8.45;1.30;;;;;;;;;;4963615;28;20039;-63
2021/04/02 14:03:01;;;;;;;7.32;1.30;;;;;;;;;;4971023;28;20047;-62
2021/04/02 14:05:46;;;;;;;4.65;1.10;;;;;;;;;;4955819;28;20038;-62
2021/04/02 14:08:31;;;;;;;6.53;0.98;;;;;;;;;;4970700;28;20753;-62
2021/04/02 14:11:16;;;;;;;8.32;1.20;;;;;;;;;;4970183;28;20043;-62
2021/04/02 14:14:02;;;;;;;9.32;1.35;;;;;;;;;;4971640;28;20515;-62
2021/04/02 14:16:47;;;;;;;4.93;1.70;;;;;;;;;;4955962;28;20619;-62
2021/04/02 14:19:32;;;;;;;5.78;1.52;;;;;;;;;;4969108;28;20121;-62
2021/04/02 14:22:17;;;;;;;10.27;1.92;;;;;;;;;;4971317;28;20043;-62
2021/04/02 14:25:02;;;;;;;5.07;1.35;;;;;;;;;;4971530;28;20039;-62
2021/04/02 14:27:48;;;;;;;3.78;1.20;;;;;;;;;;4962226;28;20054;-62
2021/04/02 14:30:37;;;;;;;3.63;1.38;;;;;;;;;;4969813;28;20133;-62
2021/04/02 14:33:22;;;;;;;5.10;2.88;;;;;;;;;;4970148;28;20051;-62
2021/04/02 14:36:08;;;;;;;8.25;1.45;;;;;;;;;;4971222;28;20491;-62
2021/04/02 14:38:53;;;;;;;5.90;1.27;;;;;;;;;;4970463;28;20525;-62
2021/04/02 14:41:39;;;;;;;5.93;1.20;;;;;;;;;;4953820;28;20047;-62
2021/04/02 14:44:24;;;;;;;3.88;1.15;;;;;;;;;;4955249;28;20530;-62
2021/04/02 14:47:09;;;;;;;4.55;1.35;;;;;;;;;;4969944;28;20050;-62
2021/04/02 14:49:54;;;;;;;5.50;1.52;;;;;;;;;;4951280;28;20051;-62
2021/04/02 14:52:40;;;;;;;7.15;1.67;;;;;;;;;;4974632;28;20046;-62
2021/04/02 14:55:25;;;;;;;7.18;1.50;;;;;;;;;;4969145;28;20428;-62
2021/04/02 14:58:11;;;;;;;10.52;1.95;;;;;;;;;;4970995;28;20545;-63
2021/04/02 15:00:57;;;;;;;7.32;1.95;;;;;;;;;;4969613;28;20043;-62
2021/04/02 15:03:43;;;;;;;7.75;1.77;;;;;;;;;;4936555;29;20051;-62
2021/04/02 15:06:29;;;;;;;8.05;1.50;;;;;;;;;;4955636;28;20106;-62
2021/04/02 15:09:15;;;;;;;12.50;2.50;;;;;;;;;;4962506;28;20046;-62
2021/04/02 15:12:00;;;;;;;9.07;2.05;;;;;;;;;;4968698;28;20035;-62
2021/04/02 15:14:46;;;;;;;10.75;2.38;;;;;;;;;;4980376;28;20062;-62
2021/04/02 15:17:32;;;;;;;7.50;1.70;;;;;;;;;;4967441;28;20054;-62
2021/04/02 15:20:18;;;;;;;6.93;2.17;;;;;;;;;;4969306;28;20043;-62
2021/04/02 15:23:03;;;;;;;11.00;3.25;;;;;;;;;;4970151;28;20134;-63
2021/04/02 15:25:48;;;;;;;16.08;3.40;;;;;;;;;;4955715;28;20414;-62
2021/04/02 15:28:33;;;;;;;11.18;2.70;;;;;;;;;;4969383;28;20050;-62
2021/04/02 15:31:18;;;;;;;8.90;3.85;;;;;;;;;;4971037;28;20090;-63
2021/04/02 15:34:04;;;;;;;13.60;2.90;;;;;;;;;;4973734;28;20050;-62
2021/04/02 15:36:49;;;;;;;12.45;3.75;;;;;;;;;;4973463;28;20035;-62
2021/04/02 15:39:35;;;;;;;9.75;3.10;;;;;;;;;;4973432;28;20079;-62
2021/04/02 15:42:20;;;;;;;7.50;2.20;;;;;;;;;;4963317;28;20094;-63
2021/04/02 15:45:06;;;;;;;11.98;3.55;;;;;;;;;;4973446;28;20757;-63
2021/04/02 15:47:52;;;;;;;7.93;3.10;;;;;;;;;;4961891;28;20151;-62
2021/04/02 15:50:37;;;;;;;13.27;3.55;;;;;;;;;;4973753;28;20450;-63
2021/04/02 15:53:22;;;;;;;17.10;4.10;;;;;;;;;;4972549;28;20544;-63
2021/04/02 15:56:07;;;;;;;13.77;3.60;;;;;;;;;;4973904;28;20051;-63
2021/04/02 15:58:53;;;;;;;12.27;3.95;;;;;;;;;;4973258;28;20051;-63
2021/04/02 16:01:38;;;;;;;19.35;4.32;;;;;;;;;;4956903;28;20046;-63
2021/04/02 16:04:23;;;;;;;15.05;3.67;;;;;;;;;;4972734;28;20055;-62
2021/04/02 16:07:09;;;;;;;18.20;3.17;;;;;;;;;;4973814;28;20039;-62
2021/04/02 16:09:55;;;;;;;13.65;3.53;;;;;;;;;;4970095;28;20054;-63
2021/04/02 16:12:40;;;;;;;16.15;4.93;;;;;;;;;;4973694;28;20410;-63
2021/04/02 16:15:26;;;;;;;9.98;4.13;;;;;;;;;;4972296;28;20047;-62
2021/04/02 16:18:11;;;;;;;12.95;3.60;;;;;;;;;;4971596;28;20144;-62
2021/04/02 16:20:57;;;;;;;20.10;6.45;;;;;;;;;;4973234;28;20523;-63
2021/04/02 16:23:42;;;;;;;12.20;3.88;;;;;;;;;;4954275;28;20512;-63
2021/04/02 16:26:27;;;;;;;9.02;4.68;;;;;;;;;;4953190;29;20047;-62
2021/04/02 16:29:13;;;;;;;20.80;5.72;;;;;;;;;;4959820;28;20491;-63
2021/04/02 16:31:59;;;;;;;15.75;4.25;;;;;;;;;;4990739;28;20050;-62
2021/04/02 16:34:44;;;;;;;15.73;3.67;;;;;;;;;;4992430;28;20498;-62